Time;durP1;ratioP1;P1;durP2;ratioP2;P2;SDS_P1;SDS_P2;PMS_P1;PMS_P2;Temp;Humidity;BMP_temperature;BMP_pressure;BME280_temperature;BME280_humidity;BME280_pressure;Samples;Min_cycle;Max_cycle;Signal;HPM_P1;HPM_P2
2023/03/03 20:09:00;;;;;;;7.22;2.38;;;5.60;99.90;;;;;;5106031;27;20127;-65
2023/03/03 20:11:46;;;;;;;12.85;2.75;;;5.50;99.90;;;;;;5102080;28;20144;-68
2023/03/03 20:14:24;;;;;;;9.25;2.30;;;5.60;99.90;;;;;;5096357;28;20118;-71
2023/03/03 20:16:53;;;;;;;6.30;2.00;;;5.70;99.90;;;;;;5108897;28;20027;-71
2023/03/03 20:19:40;;;;;;;12.20;2.60;;;5.80;99.90;;;;;;5097105;28;20473;-71
2023/03/03 20:22:41;;;;;;;7.68;2.10;;;5.90;99.90;;;;;;5088010;28;20031;-71
2023/03/03 20:25:14;;;;;;;8.20;2.25;;;6.00;99.90;;;;;;5088936;28;20027;-70
2023/03/03 20:27:51;;;;;;;14.88;3.80;;;6.00;99.90;;;;;;5087492;28;20032;-70
2023/03/03 20:30:30;;;;;;;12.68;3.50;;;6.10;99.90;;;;;;5081054;28;20028;-71
2023/03/03 20:33:13;;;;;;;24.80;7.60;;;6.10;99.90;;;;;;5088078;28;20035;-70
2023/03/03 20:35:58;;;;;;;14.90;3.75;;;6.20;99.90;;;;;;5088022;28;20012;-69
2023/03/03 20:38:38;;;;;;;8.75;2.78;;;6.20;99.90;;;;;;5087094;28;20020;-69
2023/03/03 20:41:09;;;;;;;8.93;2.67;;;6.20;99.90;;;;;;5086272;28;20028;-71
2023/03/03 20:44:05;;;;;;;7.10;2.05;;;6.30;99.90;;;;;;5086196;28;20035;-71
2023/03/03 20:46:46;;;;;;;11.18;2.20;;;6.30;99.90;;;;;;5067626;28;20068;-71
2023/03/03 20:49:48;;;;;;;8.75;2.60;;;6.30;99.90;;;;;;5066205;28;20035;-68
2023/03/03 20:52:42;;;;;;;10.57;2.83;;;6.30;99.90;;;;;;5073157;28;20032;-73
2023/03/03 20:55:16;;;;;;;12.45;2.40;;;6.30;99.90;;;;;;5082687;28;20038;-72
2023/03/03 20:57:56;;;;;;;4.18;1.90;;;6.30;99.90;;;;;;5083316;28;20032;-72
2023/03/03 21:00:31;;;;;;;9.77;2.60;;;6.30;99.90;;;;;;5076226;28;20497;-71
2023/03/03 21:03:26;;;;;;;7.60;2.13;;;6.30;99.90;;;;;;5073468;28;20122;-71
2023/03/03 21:06:05;;;;;;;9.20;2.10;;;6.30;99.90;;;;;;5090641;28;20047;-69
2023/03/03 21:08:47;;;;;;;9.65;2.60;;;6.30;99.90;;;;;;5098551;28;20050;-70
2023/03/03 21:11:14;;;;;;;;;;;6.30;99.90;;;;;;5108441;28;20546;-68
2023/03/03 21:13:53;;;;;;;10.80;3.05;;;6.30;99.90;;;;;;5086798;28;20280;-69
2023/03/03 21:16:21;;;;;;;10.77;2.42;;;6.20;99.90;;;;;;5087745;28;20052;-68
2023/03/03 21:19:02;;;;;;;8.77;2.15;;;6.30;99.90;;;;;;5079752;28;20028;-69
2023/03/03 21:21:31;;;;;;;11.82;2.60;;;6.20;99.90;;;;;;5073216;28;20020;-67
2023/03/03 21:23:58;;;;;;;11.57;2.40;;;6.20;99.90;;;;;;5079122;28;20016;-69
2023/03/03 21:26:56;;;;;;;7.63;2.88;;;6.30;99.90;;;;;;5093877;28;20392;-68
2023/03/03 21:29:29;;;;;;;8.70;2.13;;;6.20;99.90;;;;;;5086024;28;20095;-71
2023/03/03 21:31:57;;;;;;;12.00;2.22;;;6.20;99.90;;;;;;5053043;28;20028;-72
2023/03/03 21:34:41;;;;;;;10.50;2.45;;;6.20;99.90;;;;;;5061350;28;20539;-67
2023/03/03 21:37:14;;;;;;;11.55;3.35;;;6.20;99.90;;;;;;5092087;28;20047;-69
2023/03/03 21:39:44;;;;;;;13.05;3.92;;;6.20;99.90;;;;;;5093120;28;20103;-71
2023/03/03 21:42:27;;;;;;;12.88;2.40;;;6.20;99.90;;;;;;5092948;28;20085;-70
2023/03/03 21:44:53;;;;;;;10.68;2.75;;;6.20;99.90;;;;;;5092267;28;20114;-68
2023/03/03 21:47:26;;;;;;;10.05;2.85;;;6.20;99.90;;;;;;5093960;28;20067;-70
2023/03/03 21:49:52;;;;;;;10.95;2.50;;;6.20;99.90;;;;;;5094044;28;20028;-70
2023/03/03 21:52:20;;;;;;;7.55;2.20;;;6.20;99.90;;;;;;5091791;28;20437;-68
2023/03/03 21:54:48;;;;;;;8.85;2.83;;;6.20;99.90;;;;;;5093443;28;20091;-71
2023/03/03 21:57:14;;;;;;;8.27;2.60;;;6.20;99.90;;;;;;5092112;28;20032;-67
2023/03/03 21:59:40;;;;;;;8.18;2.53;;;6.20;99.90;;;;;;5093436;28;20027;-70
2023/03/03 22:02:06;;;;;;;10.73;2.70;;;6.20;99.90;;;;;;5094063;28;20161;-71
2023/03/03 22:04:32;;;;;;;12.20;2.92;;;6.20;99.90;;;;;;5093354;28;20024;-70
2023/03/03 22:06:58;;;;;;;9.02;2.75;;;6.20;99.90;;;;;;5093674;28;20071;-69
2023/03/03 22:09:24;;;;;;;14.15;3.42;;;6.20;99.90;;;;;;5092474;28;20047;-69
2023/03/03 22:11:50;;;;;;;8.43;2.97;;;6.20;99.90;;;;;;5092111;28;20726;-70
2023/03/03 22:14:15;;;;;;;12.73;3.28;;;6.10;99.90;;;;;;5091976;28;20036;-71
2023/03/03 22:16:42;;;;;;;10.77;3.00;;;6.20;99.90;;;;;;5093257;28;20556;-71
2023/03/03 22:19:08;;;;;;;10.88;2.58;;;6.20;99.90;;;;;;5063628;28;20029;-68
2023/03/03 22:21:35;;;;;;;9.50;3.00;;;6.20;99.90;;;;;;5092010;28;20027;-67
